Time;durP1;ratioP1;P1;durP2;ratioP2;P2;SDS_P1;SDS_P2;PMS_P1;PMS_P2;Temp;Humidity;BMP_temperature;BMP_pressure;BME280_temperature;BME280_humidity;BME280_pressure;Samples;Min_cycle;Max_cycle;Signal;HPM_P1;HPM_P2
2022/11/02 18:05:51;;;;;;;35.40;15.80;;;;;;;9.31;72.68;98787.06;6177675;23;20039;-63
2022/11/02 18:08:17;;;;;;;31.98;14.68;;;;;;;9.38;72.83;98798.91;6182716;23;20019;-64
2022/11/02 18:10:43;;;;;;;20.20;11.20;;;;;;;9.36;72.84;98808.59;6131081;23;20024;-63
2022/11/02 18:13:13;;;;;;;16.80;8.18;;;;;;;9.34;72.98;98800.00;6156729;23;20005;-63
2022/11/02 18:15:38;;;;;;;17.15;8.65;;;;;;;9.32;72.78;98807.06;6127661;23;20031;-62
2022/11/02 18:18:04;;;;;;;23.00;10.95;;;;;;;9.24;72.72;98797.88;6129191;23;19997;-63
2022/11/02 18:20:30;;;;;;;19.27;10.68;;;;;;;9.24;73.61;98797.88;6154267;23;20005;-63
2022/11/02 18:22:56;;;;;;;15.63;9.13;;;;;;;9.26;73.65;98810.88;6155457;23;19997;-65
2022/11/02 18:25:21;;;;;;;14.23;8.18;;;;;;;9.29;73.53;98802.88;6154766;23;19996;-64
2022/11/02 18:27:47;;;;;;;19.08;10.95;;;;;;;9.30;72.99;98795.88;6154433;23;19994;-63
2022/11/02 18:30:14;;;;;;;20.38;11.93;;;;;;;9.31;73.02;98797.53;6155521;23;20039;-63
2022/11/02 18:32:40;;;;;;;23.50;16.90;;;;;;;9.27;73.72;98795.09;6128953;23;20132;-63
2022/11/02 18:35:07;;;;;;;24.20;16.48;;;;;;;9.23;73.56;98790.09;6128651;23;20061;-63
2022/11/02 18:37:33;;;;;;;19.67;12.07;;;;;;;9.23;73.73;98790.09;6128803;23;20316;-63
2022/11/02 18:39:58;;;;;;;17.60;10.00;;;;;;;9.19;73.60;98778.13;6154692;23;20411;-62
2022/11/02 18:42:23;;;;;;;20.63;12.40;;;;;;;9.16;73.48;98789.59;6154801;23;20001;-63
2022/11/02 18:44:49;;;;;;;16.38;9.48;;;;;;;9.10;73.45;98779.44;6153066;23;20005;-63
2022/11/02 18:47:14;;;;;;;19.45;11.43;;;;;;;9.11;74.05;98788.13;6154649;23;20051;-63
2022/11/02 18:49:39;;;;;;;19.85;11.25;;;;;;;9.06;74.62;98777.91;6154618;23;20005;-63
2022/11/02 18:52:05;;;;;;;19.55;10.77;;;;;;;8.98;74.79;98765.25;6153906;23;20001;-65
2022/11/02 18:54:30;;;;;;;23.17;14.15;;;;;;;8.92;74.11;98770.81;6126322;23;20009;-62
2022/11/02 18:56:56;;;;;;;23.38;14.82;;;;;;;8.89;74.35;98772.75;6153055;23;20119;-64
2022/11/02 18:59:21;;;;;;;21.85;15.20;;;;;;;8.86;73.73;98778.97;6127828;23;20506;-64
2022/11/02 19:01:47;;;;;;;22.90;14.55;;;;;;;8.82;74.82;98773.97;6127384;23;20005;-65
2022/11/02 19:04:12;;;;;;;22.35;14.32;;;;;;;8.77;74.21;98769.84;6153790;23;20001;-66
2022/11/02 19:09:22;;;;;;;23.50;14.70;;;;;;;8.65;74.64;98770.47;6153542;23;20320;-66
2022/11/02 19:11:53;;;;;;;24.15;13.48;;;;;;;8.59;75.08;98773.41;6127226;23;20585;-66
2022/11/02 19:14:19;;;;;;;22.37;11.93;;;;;;;8.56;75.68;98770.94;6126569;23;20432;-67
2022/11/02 19:16:45;;;;;;;24.30;13.48;;;;;;;8.49;74.59;98769.56;6101693;23;20486;-67
2022/11/02 19:19:10;;;;;;;25.90;14.20;;;;;;;8.44;74.59;98774.19;6151220;23;20006;-65
2022/11/02 19:21:35;;;;;;;22.30;14.00;;;;;;;8.45;76.29;98776.72;6153084;23;20132;-66
2022/11/02 19:24:02;;;;;;;25.00;15.63;;;;;;;8.41;74.99;98782.19;6151316;23;20335;-66
2022/11/02 19:26:28;;;;;;;23.70;12.18;;;;;;;8.28;74.79;98774.06;6102949;23;20005;-64
2022/11/02 19:28:53;;;;;;;19.35;10.65;;;;;;;8.26;76.31;98770.72;6126144;23;20400;-65
2022/11/02 19:31:18;;;;;;;18.17;10.05;;;;;;;8.20;75.70;98760.56;6150900;23;20005;-65
2022/11/02 19:33:44;;;;;;;26.63;13.98;;;;;;;8.17;75.92;98771.16;6151804;23;20073;-65
2022/11/02 19:36:09;;;;;;;18.77;11.15;;;;;;;8.19;76.25;98761.47;6152318;23;20005;-65
2022/11/02 19:38:36;;;;;;;24.75;12.77;;;;;;;8.15;76.28;98770.38;6103222;23;20006;-65
2022/11/02 19:41:12;;;;;;;19.40;10.30;;;;;;;8.15;76.70;98768.59;6127479;23;20001;-65
2022/11/02 19:43:39;;;;;;;18.60;9.48;;;;;;;8.19;76.97;98774.53;6103084;23;20469;-66
2022/11/02 19:46:09;;;;;;;18.55;9.50;;;;;;;8.13;77.04;98764.41;6126641;23;20451;-66
2022/11/02 19:48:34;;;;;;;15.43;8.20;;;;;;;8.05;77.10;98763.00;6127022;23;20001;-65
2022/11/02 19:51:07;;;;;;;19.10;8.77;;;;;;;7.98;76.87;98765.97;6127242;23;20376;-66
2022/11/02 19:53:33;;;;;;;15.90;7.80;;;;;;;7.99;76.92;98762.47;6151927;23;20427;-65
2022/11/02 19:55:58;;;;;;;14.75;8.13;;;;;;;8.00;76.37;98764.16;6125649;23;20070;-64
2022/11/02 19:58:23;;;;;;;19.23;9.70;;;;;;;7.99;77.03;98763.31;6153078;23;20009;-66
2022/11/02 20:00:49;;;;;;;35.10;18.27;;;;;;;7.97;77.26;98754.69;6126171;23;20076;-67
2022/11/02 20:03:14;;;;;;;66.50;31.13;;;;;;;7.97;77.81;98759.06;6151211;23;20011;-66
2022/11/02 20:05:40;;;;;;;51.45;26.52;;;;;;;7.97;77.73;98757.31;6151833;23;20081;-66
2022/11/02 20:08:06;;;;;;;33.95;17.48;;;;;;;7.96;77.85;98757.41;6127601;23;20005;-65
2022/11/02 20:10:31;;;;;;;23.83;12.30;;;;;;;7.93;78.04;98752.31;6152776;23;20014;-62
2022/11/02 20:12:57;;;;;;;26.05;12.50;;;;;;;7.96;78.18;98762.63;6126657;23;20439;-64
2022/11/02 20:15:22;;;;;;;30.38;15.85;;;;;;;7.92;77.70;98763.69;6152657;23;20080;-65
2022/11/02 20:17:47;;;;;;;81.65;36.20;;;;;;;7.85;77.39;98757.91;6152117;23;20073;-65
2022/11/02 20:20:13;;;;;;;55.30;28.65;;;;;;;7.77;77.87;98758.28;6127398;23;20427;-65
2022/11/02 20:22:38;;;;;;;39.28;19.42;;;;;;;7.71;78.80;98758.59;6122976;23;20002;-67
2022/11/02 20:25:07;;;;;;;29.98;15.63;;;;;;;7.69;78.52;98754.34;6124794;23;20135;-66
2022/11/02 20:27:40;;;;;;;17.55;7.97;;;;;;;10.24;100.00;98752.97;6125820;23;20087;-66
2022/11/02 20:30:06;;;;;;;27.23;13.48;;;;;;;11.79;81.93;98760.06;6150531;23;20092;-66
2022/11/02 20:32:31;;;;;;;29.65;15.57;;;;;;;10.79;69.98;98760.22;6125388;23;20009;-65
2022/11/02 20:34:56;;;;;;;22.55;11.23;;;;;;;9.97;68.69;98756.25;6152507;23;20088;-66
2022/11/02 20:37:22;;;;;;;19.90;11.98;;;;;;;9.35;70.75;98751.94;6152896;23;20072;-66
2022/11/02 20:39:48;;;;;;;21.00;12.95;;;;;;;8.95;71.15;98751.50;6103312;23;20006;-66
2022/11/02 20:42:13;;;;;;;25.25;15.43;;;;;;;8.69;72.83;98755.47;6152416;23;20009;-65
2022/11/02 20:44:39;;;;;;;25.45;14.65;;;;;;;8.48;73.92;98754.81;6150894;23;20056;-66
2022/11/02 20:47:04;;;;;;;23.05;12.55;;;;;;;8.29;74.99;98755.72;6152628;23;20387;-66
2022/11/02 20:49:29;;;;;;;107.72;46.97;;;;;;;8.10;75.23;98757.56;6152822;23;20009;-66
2022/11/02 20:51:55;;;;;;;103.10;46.92;;;;;;;7.98;76.09;98760.75;6152144;23;20082;-65
2022/11/02 20:54:21;;;;;;;119.47;56.55;;;;;;;7.87;77.38;98763.06;6153065;23;20391;-66
2022/11/02 20:56:47;;;;;;;116.85;56.08;;;;;;;7.78;77.14;98761.75;6152278;23;20458;-67
2022/11/02 20:59:12;;;;;;;46.55;24.40;;;;;;;7.85;80.42;98760.53;6103129;23;20036;-67
2022/11/02 21:01:38;;;;;;;34.92;18.63;;;;;;;7.77;78.76;98763.50;6126021;23;20339;-66
2022/11/02 21:04:03;;;;;;;26.65;14.73;;;;;;;7.73;77.50;98763.72;6152286;23;20080;-67
2022/11/02 21:06:28;;;;;;;21.02;11.45;;;;;;;7.67;78.26;98762.25;6151472;23;20440;-66
2022/11/02 21:08:54;;;;;;;22.98;12.60;;;;;;;7.60;78.73;98755.63;6125650;23;20006;-66
2022/11/02 21:14:03;;;;;;;21.35;11.77;;;;;;;7.43;78.74;98758.19;6129129;23;20346;-66
2022/11/02 21:16:28;;;;;;;134.38;51.15;;;;;;;7.41;79.90;98758.28;6151594;23;20061;-66
2022/11/02 21:18:54;;;;;;;114.85;49.80;;;;;;;7.38;79.12;98750.59;6151712;23;20363;-66
2022/11/02 21:21:20;;;;;;;59.45;29.35;;;;;;;7.36;79.34;98752.41;6149546;23;20385;-66
2022/11/02 21:23:46;;;;;;;45.53;24.02;;;;;;;7.30;79.38;98750.94;6150630;23;20072;-66
2022/11/02 21:26:12;;;;;;;37.55;19.95;;;;;;;7.25;79.87;98745.09;6126271;23;20001;-66
2022/11/02 21:28:38;;;;;;;25.38;15.18;;;;;;;7.26;79.83;98748.53;6125616;23;20009;-66
2022/11/02 21:31:05;;;;;;;24.73;13.57;;;;;;;7.19;79.53;98745.38;6127262;23;19997;-66
2022/11/02 21:33:30;;;;;;;26.38;15.15;;;;;;;7.21;80.80;98748.75;6102195;23;20016;-66
2022/11/02 21:35:56;;;;;;;38.90;23.23;;;;;;;7.18;79.49;98748.91;6126408;23;20001;-67
2022/11/02 21:38:22;;;;;;;38.38;21.88;;;;;;;7.16;79.44;98740.31;6125175;23;20006;-66
2022/11/02 21:40:47;;;;;;;34.20;16.65;;;;;;;7.05;78.16;98742.53;6152162;23;20073;-67
2022/11/02 21:43:12;;;;;;;22.73;12.55;;;;;;;6.85;79.55;98726.06;6112423;23;20455;-65
2022/11/02 21:45:38;;;;;;;26.15;17.23;;;;;;;6.79;79.15;98728.94;6095659;23;20006;-64
2022/11/02 21:48:03;;;;;;;21.48;11.80;;;;;;;6.73;79.13;98742.25;6121711;23;20006;-64
2022/11/02 21:50:28;;;;;;;21.08;11.35;;;;;;;6.72;80.21;98743.16;6123891;23;20430;-65
2022/11/02 21:52:54;;;;;;;22.65;12.77;;;;;;;6.73;81.01;98737.03;6073106;23;20399;-65
